Terminal Aerodrome Forecast
Issued by NWS Goodland, KS

Home | Current Version | Previous Version | Text Only | Print | Product List | Glossary On
Versions: 1 2 3 4 5 6 7 8 9 10 11 12 13 14 15
000
FTUS43 KGLD 011741
TAFGLD
TAF
KGLD 011741Z 0118/0218 01005KT P6SM SCT250
     FM020330 33013G22KT P6SM VCTS BKN060CB
      TEMPO 0204/0208 VRB20G35KT 4SM -SHRA OVC030
     FM020900 33017KT P6SM OVC010
     FM021500 34023G30KT P6SM BKN020=

USA.gov is the U.S. government's official web portal to all federal, state and local government web resources and services.